Time;durP1;ratioP1;P1;durP2;ratioP2;P2;SDS_P1;SDS_P2;PMS_P1;PMS_P2;Temp;Humidity;BMP_temperature;BMP_pressure;BME280_temperature;BME280_humidity;BME280_pressure;Samples;Min_cycle;Max_cycle;Signal;HPM_P1;HPM_P2
2021/09/05 00:00:04;;;;;;;34.47;23.05;;;;;;;;;;5075356;28;20185;-46
2021/09/05 00:02:30;;;;;;;34.15;24.08;;;;;;;;;;5091354;28;20201;-46
2021/09/05 00:04:56;;;;;;;34.60;24.75;;;;;;;;;;5093689;28;20181;-46
2021/09/05 00:07:22;;;;;;;33.80;23.63;;;;;;;;;;5097291;28;20268;-46
2021/09/05 00:09:48;;;;;;;31.65;23.73;;;;;;;;;;5098445;28;20198;-46
2021/09/05 00:12:14;;;;;;;36.65;23.58;;;;;;;;;;5093342;28;20222;-46
2021/09/05 00:14:40;;;;;;;31.38;22.52;;;;;;;;;;5098241;28;20268;-46
2021/09/05 00:17:06;;;;;;;33.00;23.67;;;;;;;;;;5097864;28;20256;-46
2021/09/05 00:19:32;;;;;;;33.00;23.90;;;;;;;;;;5098017;28;20177;-46
2021/09/05 00:21:58;;;;;;;34.53;24.13;;;;;;;;;;5096660;28;20186;-46
2021/09/05 00:24:24;;;;;;;29.77;22.60;;;;;;;;;;5097852;28;20192;-46
2021/09/05 00:26:50;;;;;;;30.75;22.75;;;;;;;;;;5097332;28;20185;-46
2021/09/05 00:29:16;;;;;;;29.20;21.67;;;;;;;;;;5097477;28;20181;-46
2021/09/05 00:31:43;;;;;;;33.42;23.33;;;;;;;;;;5082392;28;20638;-46
2021/09/05 00:34:09;;;;;;;31.98;22.77;;;;;;;;;;5077387;28;20169;-46
2021/09/05 00:36:35;;;;;;;29.70;21.90;;;;;;;;;;5077415;28;20207;-46
2021/09/05 00:39:01;;;;;;;34.13;23.63;;;;;;;;;;5093801;28;20197;-46
2021/09/05 00:41:27;;;;;;;34.30;23.40;;;;;;;;;;5094839;28;20182;-46
2021/09/05 00:44:04;;;;;;;30.90;22.40;;;;;;;;;;5097607;28;20182;-46
2021/09/05 00:46:31;;;;;;;30.05;22.50;;;;;;;;;;5085471;28;20617;-46
2021/09/05 00:48:57;;;;;;;28.75;21.80;;;;;;;;;;5076672;28;20182;-46
2021/09/05 00:51:28;;;;;;;31.38;21.83;;;;;;;;;;5089411;28;20315;-46
2021/09/05 00:53:54;;;;;;;32.13;22.83;;;;;;;;;;5089951;28;20182;-46
2021/09/05 00:56:20;;;;;;;28.42;21.02;;;;;;;;;;5083007;28;20178;-46
2021/09/05 00:58:46;;;;;;;33.33;22.58;;;;;;;;;;5096984;28;20181;-46
2021/09/05 01:01:13;;;;;;;30.08;22.48;;;;;;;;;;5086236;28;20198;-46
2021/09/05 01:03:40;;;;;;;33.60;23.17;;;;;;;;;;5077320;28;20593;-46
2021/09/05 01:06:06;;;;;;;33.30;22.80;;;;;;;;;;5077092;28;20190;-46
2021/09/05 01:08:32;;;;;;;30.65;21.63;;;;;;;;;;5084273;28;20186;-46
2021/09/05 01:10:58;;;;;;;31.48;23.15;;;;;;;;;;5095180;28;20247;-46
2021/09/05 01:13:25;;;;;;;29.02;22.10;;;;;;;;;;5092991;28;20509;-46
2021/09/05 01:15:51;;;;;;;31.30;22.58;;;;;;;;;;5080931;28;20169;-45
2021/09/05 01:18:17;;;;;;;29.10;21.08;;;;;;;;;;5096281;28;20173;-45
2021/09/05 01:20:43;;;;;;;31.58;21.77;;;;;;;;;;5097030;28;20169;-45
2021/09/05 01:23:09;;;;;;;33.40;23.02;;;;;;;;;;5097122;28;20209;-45
2021/09/05 01:25:35;;;;;;;31.10;22.45;;;;;;;;;;5092935;28;20588;-45
2021/09/05 01:28:01;;;;;;;31.50;22.67;;;;;;;;;;5096013;28;20185;-45
2021/09/05 01:30:26;;;;;;;29.77;21.38;;;;;;;;;;5096178;28;20449;-45
2021/09/05 01:32:52;;;;;;;29.65;21.60;;;;;;;;;;5096811;28;20213;-45
2021/09/05 01:35:18;;;;;;;30.25;20.98;;;;;;;;;;5078864;28;20550;-45
2021/09/05 01:37:44;;;;;;;28.75;21.55;;;;;;;;;;5092282;28;20189;-45
2021/09/05 01:40:11;;;;;;;29.50;21.48;;;;;;;;;;5091476;28;20177;-45
2021/09/05 01:42:37;;;;;;;29.48;21.25;;;;;;;;;;5096552;28;20197;-45
2021/09/05 01:45:03;;;;;;;30.10;22.48;;;;;;;;;;5096338;28;20173;-45
2021/09/05 01:47:29;;;;;;;29.77;21.73;;;;;;;;;;5081721;28;20443;-45
2021/09/05 01:49:55;;;;;;;29.35;21.58;;;;;;;;;;5087097;28;20178;-45
2021/09/05 01:52:21;;;;;;;28.48;21.25;;;;;;;;;;5096373;28;20681;-46
2021/09/05 01:54:47;;;;;;;28.88;20.98;;;;;;;;;;5083015;28;20178;-46
2021/09/05 01:57:13;;;;;;;27.10;20.05;;;;;;;;;;5096034;28;20711;-46
2021/09/05 01:59:39;;;;;;;27.50;21.00;;;;;;;;;;5096221;28;20170;-46
2021/09/05 02:02:05;;;;;;;28.00;21.33;;;;;;;;;;5079088;28;20209;-46
2021/09/05 02:04:31;;;;;;;30.08;21.60;;;;;;;;;;5084855;28;20188;-46
2021/09/05 02:06:57;;;;;;;27.60;20.17;;;;;;;;;;5095518;28;20182;-46
2021/09/05 02:09:23;;;;;;;29.02;21.45;;;;;;;;;;5095132;28;20173;-46
2021/09/05 02:11:50;;;;;;;28.10;21.40;;;;;;;;;;5095459;28;20300;-46
2021/09/05 02:14:16;;;;;;;28.10;20.63;;;;;;;;;;5084878;28;20170;-46
2021/09/05 02:16:42;;;;;;;29.75;21.70;;;;;;;;;;5075910;28;20261;-46
2021/09/05 02:19:08;;;;;;;28.35;20.35;;;;;;;;;;5083881;28;20595;-46
2021/09/05 02:21:34;;;;;;;28.17;20.05;;;;;;;;;;5095808;28;20480;-46
2021/09/05 02:24:00;;;;;;;29.38;21.23;;;;;;;;;;5095851;28;20201;-46
2021/09/05 02:26:26;;;;;;;30.05;21.58;;;;;;;;;;5095406;28;20205;-45
2021/09/05 02:28:52;;;;;;;29.25;21.60;;;;;;;;;;5094054;28;20200;-45
2021/09/05 02:31:18;;;;;;;30.92;21.73;;;;;;;;;;5095202;28;20212;-45
2021/09/05 02:33:44;;;;;;;24.77;19.02;;;;;;;;;;5095102;28;20184;-46
2021/09/05 02:36:10;;;;;;;31.02;21.33;;;;;;;;;;5095502;28;20554;-46
2021/09/05 02:38:36;;;;;;;27.88;20.85;;;;;;;;;;5094778;28;20272;-46
2021/09/05 02:41:02;;;;;;;28.38;20.70;;;;;;;;;;5083875;28;20206;-46
2021/09/05 02:43:28;;;;;;;30.00;21.63;;;;;;;;;;5088193;28;20272;-46
2021/09/05 02:45:54;;;;;;;29.10;20.75;;;;;;;;;;5095383;28;20256;-46
2021/09/05 02:48:20;;;;;;;31.58;21.50;;;;;;;;;;5094656;28;20196;-46
2021/09/05 02:50:46;;;;;;;28.65;21.00;;;;;;;;;;5095295;28;20490;-46
2021/09/05 02:53:12;;;;;;;29.60;20.77;;;;;;;;;;5095360;28;20204;-46
2021/09/05 02:55:38;;;;;;;29.00;21.20;;;;;;;;;;5090633;28;20201;-46
2021/09/05 02:58:04;;;;;;;28.63;20.83;;;;;;;;;;5074303;28;20162;-45
2021/09/05 03:00:30;;;;;;;31.08;21.08;;;;;;;;;;5088839;28;20241;-46
2021/09/05 03:02:56;;;;;;;29.42;20.52;;;;;;;;;;5095195;28;20185;-46
2021/09/05 03:05:22;;;;;;;28.33;21.25;;;;;;;;;;5095031;28;20169;-46
2021/09/05 03:07:48;;;;;;;26.70;19.90;;;;;;;;;;5093959;28;20174;-45
2021/09/05 03:10:14;;;;;;;30.33;20.30;;;;;;;;;;5077848;28;20197;-45
2021/09/05 03:12:40;;;;;;;27.58;20.20;;;;;;;;;;5074620;28;20296;-46
2021/09/05 03:15:06;;;;;;;29.05;20.70;;;;;;;;;;5092446;28;20170;-46
2021/09/05 03:17:32;;;;;;;28.95;20.23;;;;;;;;;;5094203;28;20220;-46
2021/09/05 03:19:58;;;;;;;29.67;20.83;;;;;;;;;;5094356;28;20190;-46
2021/09/05 03:22:24;;;;;;;27.20;19.85;;;;;;;;;;5075133;28;20192;-46
2021/09/05 03:24:50;;;;;;;26.10;20.02;;;;;;;;;;5074572;28;20185;-46
2021/09/05 03:27:16;;;;;;;29.17;20.52;;;;;;;;;;5074227;28;20187;-46
2021/09/05 03:29:42;;;;;;;28.83;21.70;;;;;;;;;;5093654;28;20205;-46
2021/09/05 03:32:08;;;;;;;31.55;21.08;;;;;;;;;;5077130;28;20202;-46
2021/09/05 03:34:34;;;;;;;28.35;19.83;;;;;;;;;;5074579;28;20171;-46
2021/09/05 03:37:00;;;;;;;30.23;21.00;;;;;;;;;;5074281;28;20178;-46
2021/09/05 03:39:26;;;;;;;30.17;21.05;;;;;;;;;;5093516;28;20169;-46
2021/09/05 03:41:52;;;;;;;30.75;21.05;;;;;;;;;;5085835;28;20197;-46
2021/09/05 03:44:18;;;;;;;27.80;20.63;;;;;;;;;;5094587;28;20172;-46
2021/09/05 03:46:44;;;;;;;29.85;21.65;;;;;;;;;;5094199;28;20186;-46
2021/09/05 03:49:10;;;;;;;29.20;21.35;;;;;;;;;;5093827;28;20178;-46
2021/09/05 03:51:36;;;;;;;29.20;21.58;;;;;;;;;;5094114;28;20189;-46
2021/09/05 03:54:02;;;;;;;27.75;20.00;;;;;;;;;;5094469;28;20671;-46
2021/09/05 03:56:28;;;;;;;30.83;21.08;;;;;;;;;;5084383;28;20182;-46
2021/09/05 03:58:54;;;;;;;27.98;20.77;;;;;;;;;;5093481;28;20166;-46
2021/09/05 04:01:20;;;;;;;27.77;20.42;;;;;;;;;;5083237;28;20637;-46
2021/09/05 04:03:46;;;;;;;27.13;20.02;;;;;;;;;;5074210;28;20171;-46
2021/09/05 04:06:13;;;;;;;29.92;21.05;;;;;;;;;;5074141;28;20178;-46
2021/09/05 04:08:42;;;;;;;29.77;20.25;;;;;;;;;;5074646;28;20178;-46
2021/09/05 04:11:08;;;;;;;27.15;19.58;;;;;;;;;;5090213;28;20174;-46
2021/09/05 04:13:35;;;;;;;27.13;20.27;;;;;;;;;;5094113;28;20503;-46
2021/09/05 04:16:01;;;;;;;28.48;19.23;;;;;;;;;;5076607;28;20550;-46
2021/09/05 04:18:27;;;;;;;28.75;19.90;;;;;;;;;;5076611;28;20185;-46
2021/09/05 04:20:53;;;;;;;27.83;19.83;;;;;;;;;;5091338;28;20667;-46
2021/09/05 04:23:19;;;;;;;27.42;19.58;;;;;;;;;;5093334;28;20204;-46
2021/09/05 04:25:45;;;;;;;28.60;20.20;;;;;;;;;;5087695;28;20871;-46
2021/09/05 04:28:11;;;;;;;26.67;19.05;;;;;;;;;;5073477;28;20175;-46
2021/09/05 04:30:37;;;;;;;31.58;20.42;;;;;;;;;;5077632;28;20701;-46
2021/09/05 04:33:05;;;;;;;33.20;21.35;;;;;;;;;;5073809;28;20570;-46
2021/09/05 04:35:31;;;;;;;28.27;19.98;;;;;;;;;;5073918;28;20163;-46
2021/09/05 04:37:57;;;;;;;29.20;20.17;;;;;;;;;;5081355;28;20272;-46
2021/09/05 04:40:23;;;;;;;29.10;20.75;;;;;;;;;;5092485;28;20530;-46
2021/09/05 04:42:49;;;;;;;28.33;19.98;;;;;;;;;;5092367;28;20197;-46
2021/09/05 04:45:15;;;;;;;30.67;19.88;;;;;;;;;;5081475;28;20189;-46
2021/09/05 04:47:41;;;;;;;28.38;19.88;;;;;;;;;;5073066;28;20178;-46
2021/09/05 04:50:07;;;;;;;28.80;21.02;;;;;;;;;;5074227;28;20175;-45
2021/09/05 04:52:33;;;;;;;29.98;20.38;;;;;;;;;;5058091;28;20526;-45
2021/09/05 04:54:59;;;;;;;26.10;19.02;;;;;;;;;;5077445;28;20166;-45
2021/09/05 04:57:25;;;;;;;28.45;20.02;;;;;;;;;;5096152;28;20302;-45
2021/09/05 04:59:51;;;;;;;26.63;19.33;;;;;;;;;;5096918;28;20188;-45
2021/09/05 05:02:17;;;;;;;30.27;20.75;;;;;;;;;;5089959;28;20560;-45
2021/09/05 05:04:43;;;;;;;26.58;19.23;;;;;;;;;;5084157;28;20209;-45
2021/09/05 05:07:10;;;;;;;28.00;19.42;;;;;;;;;;5076328;28;20293;-45
2021/09/05 05:09:43;;;;;;;27.67;19.75;;;;;;;;;;5090088;28;20174;-46
2021/09/05 05:12:09;;;;;;;26.60;19.30;;;;;;;;;;5097244;28;20193;-46
2021/09/05 05:14:35;;;;;;;27.35;19.27;;;;;;;;;;5097331;28;20185;-46
2021/09/05 05:17:01;;;;;;;27.38;20.50;;;;;;;;;;5096408;28;20177;-45
2021/09/05 05:19:27;;;;;;;27.85;19.05;;;;;;;;;;5095616;28;20183;-45
2021/09/05 05:21:53;;;;;;;26.02;19.25;;;;;;;;;;5096992;28;20239;-45
2021/09/05 05:24:18;;;;;;;28.20;19.30;;;;;;;;;;5097142;28;20173;-45
2021/09/05 05:26:45;;;;;;;27.23;19.88;;;;;;;;;;5096549;28;20214;-46
2021/09/05 05:29:11;;;;;;;27.52;19.58;;;;;;;;;;5096313;28;20209;-46
2021/09/05 05:31:37;;;;;;;28.65;20.45;;;;;;;;;;5095597;28;20209;-46
2021/09/05 05:34:03;;;;;;;27.65;19.25;;;;;;;;;;5096587;28;20169;-46
2021/09/05 05:36:29;;;;;;;26.13;19.23;;;;;;;;;;5096603;28;20178;-46
2021/09/05 05:38:55;;;;;;;29.27;19.70;;;;;;;;;;5095780;28;20224;-46
2021/09/05 05:41:21;;;;;;;30.88;20.33;;;;;;;;;;5095118;28;20200;-46
2021/09/05 05:43:48;;;;;;;26.23;18.00;;;;;;;;;;5096773;28;20284;-46
2021/09/05 05:46:14;;;;;;;28.30;19.77;;;;;;;;;;5091447;28;20518;-46
2021/09/05 05:48:40;;;;;;;27.70;19.92;;;;;;;;;;5095626;28;20252;-46
2021/09/05 05:51:06;;;;;;;26.92;18.88;;;;;;;;;;5088754;28;20270;-46
2021/09/05 05:53:32;;;;;;;29.20;20.55;;;;;;;;;;5076367;28;20206;-46
2021/09/05 05:55:58;;;;;;;29.00;20.23;;;;;;;;;;5092521;28;20219;-46
2021/09/05 05:58:24;;;;;;;30.00;19.40;;;;;;;;;;5095716;28;20170;-46
2021/09/05 06:00:50;;;;;;;28.10;20.45;;;;;;;;;;5086843;28;20184;-46
2021/09/05 06:03:16;;;;;;;30.08;20.38;;;;;;;;;;5075887;28;20166;-46
2021/09/05 06:05:42;;;;;;;29.23;20.48;;;;;;;;;;5092077;28;20550;-45
2021/09/05 06:08:08;;;;;;;30.00;20.67;;;;;;;;;;5095460;28;20170;-45
2021/09/05 06:10:34;;;;;;;28.65;20.25;;;;;;;;;;5095288;28;20186;-45
2021/09/05 06:13:00;;;;;;;27.08;20.05;;;;;;;;;;5095610;28;20509;-45
2021/09/05 06:15:26;;;;;;;31.23;21.20;;;;;;;;;;5079115;28;20174;-45
2021/09/05 06:17:52;;;;;;;28.77;19.48;;;;;;;;;;5095057;28;20165;-45
2021/09/05 06:20:18;;;;;;;30.98;20.42;;;;;;;;;;5095494;28;20572;-45
2021/09/05 06:22:45;;;;;;;26.40;19.15;;;;;;;;;;5096043;28;20561;-45
2021/09/05 06:25:11;;;;;;;29.67;21.00;;;;;;;;;;5095189;28;20271;-45
2021/09/05 06:27:37;;;;;;;28.70;20.98;;;;;;;;;;5075116;28;20593;-45
2021/09/05 06:30:03;;;;;;;28.02;19.95;;;;;;;;;;5092657;28;20209;-45
2021/09/05 06:32:29;;;;;;;29.58;20.02;;;;;;;;;;5095513;28;20506;-45
2021/09/05 06:34:56;;;;;;;29.52;19.45;;;;;;;;;;5095691;28;20507;-45
2021/09/05 06:37:22;;;;;;;26.48;18.55;;;;;;;;;;5094850;28;20700;-45
2021/09/05 06:39:48;;;;;;;25.60;19.02;;;;;;;;;;5094282;28;20607;-45
2021/09/05 06:42:15;;;;;;;23.13;18.50;;;;;;;;;;5095242;28;20288;-46
2021/09/05 06:44:41;;;;;;;24.65;18.65;;;;;;;;;;5084786;28;20179;-46
2021/09/05 06:47:07;;;;;;;26.48;19.67;;;;;;;;;;5074382;28;20269;-46
2021/09/05 06:49:33;;;;;;;27.75;19.40;;;;;;;;;;5089036;28;20299;-45
2021/09/05 06:51:59;;;;;;;26.52;18.58;;;;;;;;;;5095180;28;20514;-45
2021/09/05 06:54:25;;;;;;;26.67;19.27;;;;;;;;;;5079651;28;20253;-46
2021/09/05 06:56:51;;;;;;;28.80;18.83;;;;;;;;;;5080883;28;20173;-46
2021/09/05 06:59:17;;;;;;;26.90;18.95;;;;;;;;;;5094756;28;20521;-46
2021/09/05 07:01:43;;;;;;;27.95;19.48;;;;;;;;;;5094162;28;20253;-45
2021/09/05 07:04:09;;;;;;;29.52;19.10;;;;;;;;;;5094797;28;20178;-45
2021/09/05 07:06:35;;;;;;;27.55;19.75;;;;;;;;;;5094821;28;20192;-45
2021/09/05 07:09:01;;;;;;;27.90;19.55;;;;;;;;;;5085113;28;20526;-45
2021/09/05 07:11:27;;;;;;;27.13;18.52;;;;;;;;;;5091026;28;20173;-45
2021/09/05 07:13:53;;;;;;;28.98;20.02;;;;;;;;;;5087008;28;20199;-45
2021/09/05 07:16:19;;;;;;;28.17;19.35;;;;;;;;;;5075144;28;20440;-45
2021/09/05 07:18:45;;;;;;;24.77;18.42;;;;;;;;;;5094523;28;20184;-45
2021/09/05 07:21:11;;;;;;;26.88;18.77;;;;;;;;;;5085065;28;20542;-45
2021/09/05 07:23:37;;;;;;;28.55;19.25;;;;;;;;;;5074720;28;20614;-45
2021/09/05 07:26:04;;;;;;;22.67;17.52;;;;;;;;;;5074518;28;20182;-45
2021/09/05 07:28:36;;;;;;;28.33;19.02;;;;;;;;;;5092071;28;20177;-45
2021/09/05 07:31:02;;;;;;;24.20;17.63;;;;;;;;;;5094923;28;20172;-45
2021/09/05 07:33:28;;;;;;;24.70;18.65;;;;;;;;;;5089554;28;20202;-46
2021/09/05 07:35:54;;;;;;;24.80;18.23;;;;;;;;;;5074618;28;20501;-46
2021/09/05 07:38:20;;;;;;;26.88;18.25;;;;;;;;;;5089903;28;20196;-45
2021/09/05 07:40:47;;;;;;;22.45;17.10;;;;;;;;;;5088246;28;20210;-45
2021/09/05 07:43:13;;;;;;;23.90;17.70;;;;;;;;;;5074355;28;20229;-45
2021/09/05 07:45:39;;;;;;;25.65;17.98;;;;;;;;;;5074353;28;20189;-45
2021/09/05 07:48:05;;;;;;;21.30;16.50;;;;;;;;;;5088051;28;20177;-45
2021/09/05 07:50:31;;;;;;;25.58;17.70;;;;;;;;;;5078325;28;20215;-45
2021/09/05 07:52:57;;;;;;;24.25;17.85;;;;;;;;;;5089175;28;20225;-45
2021/09/05 07:55:23;;;;;;;23.10;17.65;;;;;;;;;;5077719;28;20554;-45
2021/09/05 07:57:49;;;;;;;24.67;17.75;;;;;;;;;;5084502;28;20260;-45
2021/09/05 08:00:15;;;;;;;22.30;16.08;;;;;;;;;;5090177;28;20216;-45
2021/09/05 08:02:41;;;;;;;26.15;18.67;;;;;;;;;;5074465;28;20197;-45
2021/09/05 08:05:08;;;;;;;25.23;17.10;;;;;;;;;;5074212;28;20167;-45
2021/09/05 08:07:34;;;;;;;23.10;17.35;;;;;;;;;;5083328;28;20185;-45
2021/09/05 08:10:00;;;;;;;21.83;17.08;;;;;;;;;;5093402;28;20188;-45
2021/09/05 08:12:26;;;;;;;22.33;16.92;;;;;;;;;;5093762;28;20537;-46
2021/09/05 08:14:52;;;;;;;26.55;18.38;;;;;;;;;;5078367;28;20171;-46
2021/09/05 08:17:18;;;;;;;21.45;16.98;;;;;;;;;;5081146;28;20170;-46
2021/09/05 08:19:46;;;;;;;22.67;17.27;;;;;;;;;;5093669;28;20224;-46
2021/09/05 08:22:12;;;;;;;23.13;16.50;;;;;;;;;;5093697;28;20311;-46
2021/09/05 08:24:38;;;;;;;22.83;17.95;;;;;;;;;;5094426;28;20170;-46
2021/09/05 08:27:05;;;;;;;21.75;17.38;;;;;;;;;;5094724;28;20178;-45
2021/09/05 08:29:31;;;;;;;22.55;16.90;;;;;;;;;;5097476;28;20485;-45
2021/09/05 08:31:57;;;;;;;22.23;17.38;;;;;;;;;;5082386;28;20198;-45
2021/09/05 08:34:23;;;;;;;23.08;17.17;;;;;;;;;;5079035;28;20271;-45
2021/09/05 08:36:49;;;;;;;21.08;16.65;;;;;;;;;;5080691;28;20172;-45
2021/09/05 08:39:15;;;;;;;24.00;18.08;;;;;;;;;;5096552;28;20201;-45
2021/09/05 08:41:41;;;;;;;20.98;16.65;;;;;;;;;;5083714;28;20214;-45
2021/09/05 08:44:07;;;;;;;24.27;18.05;;;;;;;;;;5077587;28;20194;-45
2021/09/05 08:46:33;;;;;;;26.15;17.98;;;;;;;;;;5078073;28;20265;-45
2021/09/05 08:49:02;;;;;;;28.60;20.05;;;;;;;;;;5086721;28;20178;-45
2021/09/05 08:51:28;;;;;;;28.88;19.58;;;;;;;;;;5097872;28;20165;-45
2021/09/05 08:53:54;;;;;;;31.13;21.20;;;;;;;;;;5096010;28;20206;-45
2021/09/05 08:56:20;;;;;;;30.23;20.45;;;;;;;;;;5097193;28;20177;-46
2021/09/05 08:58:46;;;;;;;29.42;20.85;;;;;;;;;;5095883;28;20165;-46
2021/09/05 09:01:19;;;;;;;30.73;21.58;;;;;;;;;;5096001;28;20200;-46
2021/09/05 09:03:45;;;;;;;28.67;20.52;;;;;;;;;;5097370;28;20344;-46
2021/09/05 09:06:16;;;;;;;29.55;20.48;;;;;;;;;;5097630;28;20198;-46
2021/09/05 09:08:42;;;;;;;31.40;20.73;;;;;;;;;;5091330;28;20188;-46
2021/09/05 09:11:12;;;;;;;31.42;21.20;;;;;;;;;;5092601;28;20268;-46
2021/09/05 09:13:40;;;;;;;31.05;20.92;;;;;;;;;;5091047;28;20233;-46
2021/09/05 09:16:10;;;;;;;31.25;20.17;;;;;;;;;;5077098;28;20163;-46
2021/09/05 09:18:37;;;;;;;31.55;20.88;;;;;;;;;;5092755;28;20214;-46
2021/09/05 09:21:05;;;;;;;30.63;20.90;;;;;;;;;;5088828;28;20166;-45
2021/09/05 09:23:33;;;;;;;29.55;18.73;;;;;;;;;;5079100;28;20553;-45
2021/09/05 09:26:06;;;;;;;29.58;20.08;;;;;;;;;;5079546;28;20190;-45
2021/09/05 09:28:34;;;;;;;31.35;19.83;;;;;;;;;;5092556;28;20188;-45
2021/09/05 09:31:02;;;;;;;29.38;19.20;;;;;;;;;;5076943;28;20690;-46
2021/09/05 09:33:29;;;;;;;26.85;19.08;;;;;;;;;;5076711;28;20229;-46
2021/09/05 09:35:56;;;;;;;27.80;19.25;;;;;;;;;;5083498;28;20166;-46
2021/09/05 09:38:23;;;;;;;29.42;18.75;;;;;;;;;;5095331;28;20186;-46
2021/09/05 09:40:49;;;;;;;27.38;19.17;;;;;;;;;;5096008;28;20488;-46
2021/09/05 09:43:22;;;;;;;29.00;19.65;;;;;;;;;;5096920;28;20178;-46
2021/09/05 09:45:49;;;;;;;28.35;19.58;;;;;;;;;;5096626;28;20225;-46
2021/09/05 09:48:25;;;;;;;26.27;18.92;;;;;;;;;;5095416;28;20231;-46
2021/09/05 09:50:59;;;;;;;28.48;19.45;;;;;;;;;;5083466;28;20188;-46
2021/09/05 09:53:25;;;;;;;27.27;18.38;;;;;;;;;;5084605;28;20217;-46
2021/09/05 09:55:52;;;;;;;26.20;18.50;;;;;;;;;;5076293;28;20198;-45
2021/09/05 09:58:18;;;;;;;31.38;19.63;;;;;;;;;;5089223;28;20493;-45
2021/09/05 10:00:44;;;;;;;27.70;19.00;;;;;;;;;;5093340;28;20581;-46
2021/09/05 10:03:11;;;;;;;27.00;19.45;;;;;;;;;;5086239;28;20266;-46
2021/09/05 10:05:38;;;;;;;27.45;17.90;;;;;;;;;;5076249;28;20561;-46
2021/09/05 10:08:05;;;;;;;27.17;19.00;;;;;;;;;;5086690;28;20234;-46
2021/09/05 10:10:32;;;;;;;24.85;17.65;;;;;;;;;;5095711;28;20182;-46
2021/09/05 10:12:58;;;;;;;24.60;18.02;;;;;;;;;;5093162;28;20284;-46
2021/09/05 10:15:24;;;;;;;28.75;19.17;;;;;;;;;;5076601;28;20489;-46
2021/09/05 10:17:50;;;;;;;25.35;18.48;;;;;;;;;;5086753;28;20323;-46
2021/09/05 10:20:17;;;;;;;27.20;18.13;;;;;;;;;;5094803;28;20703;-46
2021/09/05 10:22:43;;;;;;;23.45;17.45;;;;;;;;;;5095596;28;20181;-46
2021/09/05 10:25:09;;;;;;;23.85;18.27;;;;;;;;;;5094916;28;20304;-46
2021/09/05 10:27:36;;;;;;;23.83;16.70;;;;;;;;;;5075428;28;20570;-46
2021/09/05 10:30:08;;;;;;;23.40;17.45;;;;;;;;;;5087664;28;20197;-46
2021/09/05 10:32:53;;;;;;;23.42;16.65;;;;;;;;;;5095611;28;20580;-45
2021/09/05 10:35:39;;;;;;;25.05;17.80;;;;;;;;;;5095793;28;20204;-45
2021/09/05 10:38:11;;;;;;;23.20;17.25;;;;;;;;;;5094353;28;20215;-45
2021/09/05 10:40:41;;;;;;;23.75;17.05;;;;;;;;;;5094166;28;20699;-45
2021/09/05 10:43:07;;;;;;;24.23;17.08;;;;;;;;;;5095903;28;20188;-45
2021/09/05 10:45:34;;;;;;;25.02;18.15;;;;;;;;;;5091498;28;20178;-45
2021/09/05 10:48:00;;;;;;;25.80;17.77;;;;;;;;;;5084716;28;20208;-45
2021/09/05 10:50:36;;;;;;;24.55;17.73;;;;;;;;;;5093876;28;20177;-45
2021/09/05 10:53:25;;;;;;;26.00;17.35;;;;;;;;;;5082859;28;20584;-45
2021/09/05 10:56:06;;;;;;;27.00;17.92;;;;;;;;;;5075365;28;20171;-45
2021/09/05 10:58:36;;;;;;;25.20;18.00;;;;;;;;;;5088651;28;20575;-45
2021/09/05 11:01:21;;;;;;;24.38;17.10;;;;;;;;;;5093042;28;20188;-46
2021/09/05 11:04:06;;;;;;;24.30;17.17;;;;;;;;;;5094969;28;20208;-46
2021/09/05 11:06:33;;;;;;;21.58;16.58;;;;;;;;;;5095065;28;20174;-46
2021/09/05 11:09:28;;;;;;;23.15;16.88;;;;;;;;;;5090956;28;20227;-45
2021/09/05 11:11:58;;;;;;;23.90;16.83;;;;;;;;;;5061526;28;20269;-46
2021/09/05 11:17:08;;;;;;;20.73;15.82;;;;;;;;;;5092688;28;20186;-46
2021/09/05 11:19:35;;;;;;;22.63;15.68;;;;;;;;;;5094466;28;20178;-46
2021/09/05 11:22:04;;;;;;;21.50;15.25;;;;;;;;;;5094697;28;20367;-46
2021/09/05 11:24:30;;;;;;;23.50;16.73;;;;;;;;;;5095014;28;20529;-46
2021/09/05 11:27:00;;;;;;;19.85;15.48;;;;;;;;;;5079035;28;20194;-46
2021/09/05 11:29:26;;;;;;;20.63;15.52;;;;;;;;;;5079660;28;20607;-46
2021/09/05 11:31:52;;;;;;;19.83;14.85;;;;;;;;;;5079373;28;20193;-46
2021/09/05 11:34:18;;;;;;;21.77;14.82;;;;;;;;;;5075245;28;20170;-46
2021/09/05 11:36:45;;;;;;;20.05;15.10;;;;;;;;;;5080151;28;20192;-46
2021/09/05 11:39:12;;;;;;;22.90;15.25;;;;;;;;;;5084085;28;20208;-46
2021/09/05 11:41:38;;;;;;;20.98;14.63;;;;;;;;;;5091299;28;20198;-46
2021/09/05 11:44:04;;;;;;;20.10;14.95;;;;;;;;;;5074590;28;20167;-46
2021/09/05 11:46:30;;;;;;;18.88;14.73;;;;;;;;;;5093325;28;20505;-46
2021/09/05 11:49:00;;;;;;;23.45;16.02;;;;;;;;;;5093590;28;20276;-46
2021/09/05 11:51:27;;;;;;;20.02;13.60;;;;;;;;;;5094287;28;20184;-46
2021/09/05 11:53:59;;;;;;;21.35;15.45;;;;;;;;;;5094716;28;20232;-46
2021/09/05 11:56:28;;;;;;;19.30;14.15;;;;;;;;;;5093782;28;20189;-46
2021/09/05 11:58:54;;;;;;;18.52;14.50;;;;;;;;;;5093104;28;20189;-46
2021/09/05 12:01:20;;;;;;;17.65;13.93;;;;;;;;;;5076391;28;20457;-46
2021/09/05 12:03:47;;;;;;;19.33;14.32;;;;;;;;;;5078240;28;20193;-46
2021/09/05 12:06:13;;;;;;;18.75;14.93;;;;;;;;;;5094054;28;20572;-46
2021/09/05 12:08:40;;;;;;;20.05;13.63;;;;;;;;;;5098023;28;20188;-46
2021/09/05 12:11:07;;;;;;;19.65;15.02;;;;;;;;;;5079576;28;20179;-46
2021/09/05 12:13:46;;;;;;;19.05;14.18;;;;;;;;;;5082413;28;20239;-46
2021/09/05 12:16:19;;;;;;;18.23;14.23;;;;;;;;;;5087970;28;20175;-46
2021/09/05 12:18:58;;;;;;;17.30;13.95;;;;;;;;;;5077808;28;20170;-46
2021/09/05 12:21:50;;;;;;;17.90;13.48;;;;;;;;;;5078219;28;20182;-46
2021/09/05 12:24:20;;;;;;;18.58;14.13;;;;;;;;;;5083899;28;20189;-46
2021/09/05 12:26:46;;;;;;;16.35;13.65;;;;;;;;;;5092201;28;20178;-46
2021/09/05 12:29:13;;;;;;;17.67;13.57;;;;;;;;;;5082105;28;20194;-46
2021/09/05 12:31:41;;;;;;;15.73;12.60;;;;;;;;;;5084046;28;20266;-46
2021/09/05 12:34:07;;;;;;;25.08;14.18;;;;;;;;;;5077935;28;20495;-46
2021/09/05 12:36:33;;;;;;;22.10;13.20;;;;;;;;;;5081551;28;20208;-46
2021/09/05 12:38:59;;;;;;;21.45;13.77;;;;;;;;;;5093605;28;20489;-46
2021/09/05 12:41:28;;;;;;;20.05;13.30;;;;;;;;;;5097324;28;20315;-46
2021/09/05 12:43:55;;;;;;;19.05;14.38;;;;;;;;;;5098160;28;20177;-46
2021/09/05 12:46:22;;;;;;;16.52;12.75;;;;;;;;;;5085708;28;20571;-46
2021/09/05 12:48:49;;;;;;;18.40;14.20;;;;;;;;;;5077023;28;20174;-46
2021/09/05 12:51:18;;;;;;;19.55;13.23;;;;;;;;;;5077643;28;20188;-46
2021/09/05 12:54:05;;;;;;;15.82;13.70;;;;;;;;;;5078688;28;20194;-46
2021/09/05 12:56:32;;;;;;;16.70;12.98;;;;;;;;;;5095795;28;20290;-46
2021/09/05 12:58:58;;;;;;;24.15;14.32;;;;;;;;;;5097234;28;20162;-46
2021/09/05 13:01:25;;;;;;;17.33;13.65;;;;;;;;;;5086676;28;20534;-46
2021/09/05 13:03:52;;;;;;;16.63;13.15;;;;;;;;;;5087256;28;20182;-46
2021/09/05 13:06:18;;;;;;;20.23;13.68;;;;;;;;;;5094521;28;20545;-46
2021/09/05 13:08:45;;;;;;;20.48;14.07;;;;;;;;;;5094027;28;20448;-46
2021/09/05 13:11:12;;;;;;;19.50;14.13;;;;;;;;;;5096675;28;20307;-46
2021/09/05 13:13:40;;;;;;;20.10;14.63;;;;;;;;;;5094280;28;20205;-46
2021/09/05 13:16:05;;;;;;;18.27;14.68;;;;;;;;;;5096925;28;20184;-46
2021/09/05 13:18:31;;;;;;;18.00;13.45;;;;;;;;;;5096394;28;20178;-46
2021/09/05 13:20:58;;;;;;;23.95;14.45;;;;;;;;;;5096452;28;20186;-46
2021/09/05 13:23:24;;;;;;;20.48;14.52;;;;;;;;;;5086614;28;20568;-46
2021/09/05 13:25:50;;;;;;;19.63;14.18;;;;;;;;;;5096665;28;20209;-46
2021/09/05 13:28:16;;;;;;;22.15;14.43;;;;;;;;;;5096764;28;20228;-46
2021/09/05 13:30:42;;;;;;;19.58;14.23;;;;;;;;;;5091964;28;20189;-46
2021/09/05 13:33:09;;;;;;;18.05;13.68;;;;;;;;;;5079703;28;20197;-46
2021/09/05 13:35:35;;;;;;;18.05;13.45;;;;;;;;;;5095622;28;20182;-46
2021/09/05 13:38:01;;;;;;;18.98;13.13;;;;;;;;;;5095527;28;20197;-46
2021/09/05 13:40:27;;;;;;;18.00;13.88;;;;;;;;;;5095571;28;20178;-46
2021/09/05 13:42:53;;;;;;;16.02;12.93;;;;;;;;;;5094978;28;20231;-46
2021/09/05 13:45:19;;;;;;;18.55;13.23;;;;;;;;;;5110673;28;20483;-46
2021/09/05 13:47:45;;;;;;;18.23;13.02;;;;;;;;;;5078536;28;20258;-46
2021/09/05 13:50:11;;;;;;;16.45;13.77;;;;;;;;;;5075385;28;20178;-46
2021/09/05 13:52:38;;;;;;;17.77;13.70;;;;;;;;;;5095182;28;20289;-46
2021/09/05 13:55:05;;;;;;;15.90;13.15;;;;;;;;;;5094534;28;20172;-46
2021/09/05 13:57:31;;;;;;;18.17;14.10;;;;;;;;;;5075696;28;20186;-46
2021/09/05 13:59:57;;;;;;;18.65;13.82;;;;;;;;;;5076058;28;20216;-46
2021/09/05 14:02:24;;;;;;;17.98;14.45;;;;;;;;;;5094540;28;20174;-46
2021/09/05 14:04:51;;;;;;;17.80;14.07;;;;;;;;;;5084202;28;20182;-46
2021/09/05 14:07:17;;;;;;;20.25;14.23;;;;;;;;;;5075868;28;20194;-46
2021/09/05 14:09:43;;;;;;;20.00;14.20;;;;;;;;;;5086229;28;20186;-46
2021/09/05 14:12:09;;;;;;;18.00;13.77;;;;;;;;;;5079507;28;20213;-46
2021/09/05 14:14:35;;;;;;;21.00;14.52;;;;;;;;;;5090710;28;20182;-46
2021/09/05 14:17:01;;;;;;;17.92;13.70;;;;;;;;;;5095426;28;20170;-46